sensor_id;sensor_type;location;lat;lon;timestamp;pressure;altitude;pressure_sealevel;temperature;humidity
141;BME280;65;48.778;9.160;2023-11-21T00:02:23;97943.09;;;7.72;100.00
141;BME280;65;48.778;9.160;2023-11-21T00:05:10;97938.28;;;7.65;100.00
141;BME280;65;48.778;9.160;2023-11-21T00:07:56;97934.53;;;7.69;100.00
141;BME280;65;48.778;9.160;2023-11-21T00:10:41;97941.50;;;7.70;100.00
141;BME280;65;48.778;9.160;2023-11-21T00:13:27;97933.19;;;7.61;100.00
141;BME280;65;48.778;9.160;2023-11-21T00:16:13;97923.00;;;7.55;100.00
141;BME280;65;48.778;9.160;2023-11-21T00:18:59;97923.34;;;7.65;100.00
141;BME280;65;48.778;9.160;2023-11-21T00:21:44;97917.22;;;7.65;100.00
141;BME280;65;48.778;9.160;2023-11-21T00:24:30;97918.66;;;7.70;100.00
141;BME280;65;48.778;9.160;2023-11-21T00:27:17;97920.28;;;7.73;100.00
141;BME280;65;48.778;9.160;2023-11-21T00:30:03;97923.09;;;7.70;100.00
141;BME280;65;48.778;9.160;2023-11-21T00:32:50;97917.75;;;7.71;100.00
141;BME280;65;48.778;9.160;2023-11-21T00:35:36;97910.53;;;7.75;100.00
141;BME280;65;48.778;9.160;2023-11-21T00:38:22;97919.53;;;7.71;100.00
141;BME280;65;48.778;9.160;2023-11-21T00:41:08;97923.09;;;7.70;100.00
141;BME280;65;48.778;9.160;2023-11-21T00:43:54;97918.75;;;7.69;100.00
141;BME280;65;48.778;9.160;2023-11-21T00:46:40;97924.69;;;7.72;100.00
141;BME280;65;48.778;9.160;2023-11-21T00:49:26;97928.25;;;7.87;100.00
141;BME280;65;48.778;9.160;2023-11-21T00:52:13;97925.69;;;7.85;100.00
141;BME280;65;48.778;9.160;2023-11-21T00:54:59;97925.34;;;7.91;100.00
141;BME280;65;48.778;9.160;2023-11-21T00:57:45;97925.88;;;7.82;100.00
141;BME280;65;48.778;9.160;2023-11-21T01:00:31;97921.09;;;7.89;100.00
141;BME280;65;48.778;9.160;2023-11-21T01:03:17;97915.94;;;7.87;100.00
141;BME280;65;48.778;9.160;2023-11-21T01:06:03;97923.66;;;7.90;100.00
141;BME280;65;48.778;9.160;2023-11-21T01:08:50;97920.03;;;7.77;100.00
141;BME280;65;48.778;9.160;2023-11-21T01:11:36;97922.31;;;7.83;100.00
141;BME280;65;48.778;9.160;2023-11-21T01:14:22;97928.59;;;7.81;100.00
141;BME280;65;48.778;9.160;2023-11-21T01:17:08;97927.56;;;7.83;100.00
141;BME280;65;48.778;9.160;2023-11-21T01:19:53;97924.84;;;7.85;100.00
141;BME280;65;48.778;9.160;2023-11-21T01:22:39;97916.69;;;7.89;100.00
141;BME280;65;48.778;9.160;2023-11-21T01:25:25;97914.50;;;7.82;100.00
141;BME280;65;48.778;9.160;2023-11-21T01:28:12;97907.94;;;7.89;100.00
141;BME280;65;48.778;9.160;2023-11-21T01:30:57;97918.78;;;7.99;100.00
141;BME280;65;48.778;9.160;2023-11-21T01:33:43;97921.88;;;7.91;100.00
141;BME280;65;48.778;9.160;2023-11-21T01:36:32;97913.88;;;7.92;100.00
141;BME280;65;48.778;9.160;2023-11-21T01:39:18;97914.47;;;7.98;100.00
141;BME280;65;48.778;9.160;2023-11-21T01:42:09;97914.88;;;8.06;100.00
141;BME280;65;48.778;9.160;2023-11-21T01:44:54;97913.34;;;8.02;100.00
141;BME280;65;48.778;9.160;2023-11-21T01:47:41;97918.03;;;7.97;100.00
141;BME280;65;48.778;9.160;2023-11-21T01:50:28;97916.94;;;8.01;100.00
141;BME280;65;48.778;9.160;2023-11-21T01:53:14;97911.25;;;7.92;100.00
141;BME280;65;48.778;9.160;2023-11-21T01:56:00;97911.69;;;7.85;100.00
141;BME280;65;48.778;9.160;2023-11-21T01:58:51;97912.53;;;7.85;100.00
141;BME280;65;48.778;9.160;2023-11-21T02:01:37;97918.25;;;7.78;100.00
141;BME280;65;48.778;9.160;2023-11-21T02:07:54;97919.16;;;7.92;100.00
141;BME280;65;48.778;9.160;2023-11-21T02:10:40;97922.28;;;7.99;100.00
141;BME280;65;48.778;9.160;2023-11-21T02:13:26;97910.91;;;7.99;100.00
141;BME280;65;48.778;9.160;2023-11-21T02:16:12;97912.78;;;7.97;100.00
141;BME280;65;48.778;9.160;2023-11-21T02:18:58;97911.78;;;7.83;100.00
141;BME280;65;48.778;9.160;2023-11-21T02:21:45;97913.38;;;7.86;100.00
141;BME280;65;48.778;9.160;2023-11-21T02:24:31;97908.47;;;7.80;100.00
141;BME280;65;48.778;9.160;2023-11-21T02:27:17;97906.69;;;7.80;100.00
141;BME280;65;48.778;9.160;2023-11-21T02:30:07;97900.59;;;7.80;100.00
141;BME280;65;48.778;9.160;2023-11-21T02:32:57;97903.94;;;7.98;100.00
141;BME280;65;48.778;9.160;2023-11-21T02:35:43;97909.47;;;7.93;100.00
141;BME280;65;48.778;9.160;2023-11-21T02:38:30;97901.56;;;7.93;100.00
141;BME280;65;48.778;9.160;2023-11-21T02:41:16;97903.94;;;7.98;100.00
141;BME280;65;48.778;9.160;2023-11-21T02:44:02;97899.44;;;8.00;100.00
141;BME280;65;48.778;9.160;2023-11-21T02:46:48;97899.38;;;7.85;100.00
141;BME280;65;48.778;9.160;2023-11-21T02:49:33;97901.53;;;7.79;100.00
141;BME280;65;48.778;9.160;2023-11-21T02:52:21;97893.47;;;7.66;100.00
141;BME280;65;48.778;9.160;2023-11-21T02:55:07;97895.78;;;7.56;100.00
141;BME280;65;48.778;9.160;2023-11-21T02:57:53;97901.50;;;7.47;100.00
141;BME280;65;48.778;9.160;2023-11-21T03:00:38;97892.78;;;7.47;100.00
141;BME280;65;48.778;9.160;2023-11-21T03:03:27;97888.47;;;7.46;100.00
141;BME280;65;48.778;9.160;2023-11-21T03:06:13;97898.13;;;7.29;100.00
141;BME280;65;48.778;9.160;2023-11-21T03:09:00;97894.81;;;7.26;100.00
141;BME280;65;48.778;9.160;2023-11-21T03:11:45;97905.66;;;7.36;100.00
141;BME280;65;48.778;9.160;2023-11-21T03:14:31;97901.44;;;7.33;100.00
141;BME280;65;48.778;9.160;2023-11-21T03:17:17;97905.00;;;7.32;100.00
141;BME280;65;48.778;9.160;2023-11-21T03:20:03;97896.34;;;7.30;100.00
141;BME280;65;48.778;9.160;2023-11-21T03:22:49;97911.25;;;7.29;100.00
141;BME280;65;48.778;9.160;2023-11-21T03:25:35;97908.63;;;7.29;100.00
141;BME280;65;48.778;9.160;2023-11-21T03:28:21;97911.59;;;7.39;100.00
141;BME280;65;48.778;9.160;2023-11-21T03:31:06;97908.03;;;7.40;100.00
141;BME280;65;48.778;9.160;2023-11-21T03:33:54;97912.03;;;7.47;100.00
141;BME280;65;48.778;9.160;2023-11-21T03:36:40;97909.41;;;7.47;100.00
141;BME280;65;48.778;9.160;2023-11-21T03:39:25;97915.50;;;7.48;100.00
141;BME280;65;48.778;9.160;2023-11-21T03:42:11;97911.28;;;7.45;100.00
141;BME280;65;48.778;9.160;2023-11-21T03:44:57;97909.66;;;7.43;100.00
141;BME280;65;48.778;9.160;2023-11-21T03:47:43;97914.91;;;7.43;100.00
141;BME280;65;48.778;9.160;2023-11-21T03:50:30;97915.84;;;7.42;100.00
141;BME280;65;48.778;9.160;2023-11-21T03:53:18;97913.31;;;7.40;100.00
141;BME280;65;48.778;9.160;2023-11-21T03:56:04;97924.34;;;7.47;100.00
141;BME280;65;48.778;9.160;2023-11-21T03:58:51;97927.50;;;7.53;100.00
141;BME280;65;48.778;9.160;2023-11-21T04:01:36;97927.75;;;7.65;100.00
141;BME280;65;48.778;9.160;2023-11-21T04:04:22;97928.34;;;7.70;100.00
141;BME280;65;48.778;9.160;2023-11-21T04:07:08;97916.47;;;7.78;100.00
141;BME280;65;48.778;9.160;2023-11-21T04:09:54;97918.75;;;7.84;100.00
141;BME280;65;48.778;9.160;2023-11-21T04:12:55;97915.34;;;7.82;100.00
141;BME280;65;48.778;9.160;2023-11-21T04:15:40;97924.78;;;7.71;100.00
141;BME280;65;48.778;9.160;2023-11-21T04:18:26;97924.38;;;7.63;100.00
141;BME280;65;48.778;9.160;2023-11-21T04:21:12;97930.47;;;7.63;100.00
141;BME280;65;48.778;9.160;2023-11-21T04:23:57;97927.25;;;7.58;100.00
141;BME280;65;48.778;9.160;2023-11-21T04:26:44;97930.28;;;7.66;100.00
141;BME280;65;48.778;9.160;2023-11-21T04:29:30;97922.22;;;7.69;100.00
141;BME280;65;48.778;9.160;2023-11-21T04:32:15;97913.66;;;7.66;100.00
141;BME280;65;48.778;9.160;2023-11-21T04:35:02;97924.78;;;7.55;100.00
141;BME280;65;48.778;9.160;2023-11-21T04:37:49;97925.53;;;7.41;100.00
141;BME280;65;48.778;9.160;2023-11-21T04:40:36;97925.84;;;7.35;100.00
141;BME280;65;48.778;9.160;2023-11-21T04:43:22;97928.31;;;7.22;100.00
141;BME280;65;48.778;9.160;2023-11-21T04:46:08;97940.31;;;7.11;100.00
141;BME280;65;48.778;9.160;2023-11-21T04:48:54;97933.09;;;6.98;100.00
141;BME280;65;48.778;9.160;2023-11-21T04:51:39;97930.00;;;6.90;100.00
141;BME280;65;48.778;9.160;2023-11-21T04:54:25;97937.34;;;6.84;100.00
141;BME280;65;48.778;9.160;2023-11-21T04:57:11;97936.06;;;6.75;100.00
141;BME280;65;48.778;9.160;2023-11-21T04:59:57;97941.91;;;6.80;100.00
141;BME280;65;48.778;9.160;2023-11-21T05:02:43;97940.13;;;6.81;100.00
141;BME280;65;48.778;9.160;2023-11-21T05:05:29;97934.97;;;6.79;100.00
141;BME280;65;48.778;9.160;2023-11-21T05:08:15;97939.28;;;6.80;100.00
141;BME280;65;48.778;9.160;2023-11-21T05:11:01;97940.81;;;6.84;100.00
141;BME280;65;48.778;9.160;2023-11-21T05:13:46;97945.06;;;6.87;100.00
141;BME280;65;48.778;9.160;2023-11-21T05:16:32;97946.59;;;6.91;100.00
141;BME280;65;48.778;9.160;2023-11-21T05:19:19;97948.31;;;6.92;100.00
141;BME280;65;48.778;9.160;2023-11-21T05:22:04;97951.72;;;6.94;100.00
141;BME280;65;48.778;9.160;2023-11-21T05:24:51;97954.19;;;6.97;100.00
141;BME280;65;48.778;9.160;2023-11-21T05:27:36;97965.31;;;7.02;100.00
141;BME280;65;48.778;9.160;2023-11-21T05:30:22;97961.75;;;7.03;100.00
141;BME280;65;48.778;9.160;2023-11-21T05:33:08;97971.25;;;7.06;100.00
141;BME280;65;48.778;9.160;2023-11-21T05:35:54;97969.38;;;7.08;100.00
141;BME280;65;48.778;9.160;2023-11-21T05:38:39;97980.75;;;7.08;100.00
141;BME280;65;48.778;9.160;2023-11-21T05:41:25;97971.94;;;7.09;100.00
141;BME280;65;48.778;9.160;2023-11-21T05:44:11;97982.38;;;7.11;100.00
141;BME280;65;48.778;9.160;2023-11-21T05:46:57;97971.09;;;7.09;100.00
141;BME280;65;48.778;9.160;2023-11-21T05:49:44;97972.88;;;7.08;100.00
141;BME280;65;48.778;9.160;2023-11-21T05:52:31;97982.69;;;7.05;100.00
141;BME280;65;48.778;9.160;2023-11-21T05:55:18;97984.47;;;7.04;100.00
141;BME280;65;48.778;9.160;2023-11-21T05:58:06;97986.31;;;7.02;100.00
141;BME280;65;48.778;9.160;2023-11-21T06:00:52;97983.09;;;6.97;100.00
141;BME280;65;48.778;9.160;2023-11-21T06:03:38;97984.88;;;6.96;100.00
141;BME280;65;48.778;9.160;2023-11-21T06:06:24;97981.31;;;6.97;100.00
141;BME280;65;48.778;9.160;2023-11-21T06:09:11;97985.56;;;7.00;100.00
141;BME280;65;48.778;9.160;2023-11-21T06:11:57;97990.97;;;6.97;100.00
141;BME280;65;48.778;9.160;2023-11-21T06:14:44;97989.19;;;6.97;100.00
141;BME280;65;48.778;9.160;2023-11-21T06:17:29;98003.94;;;7.00;100.00
141;BME280;65;48.778;9.160;2023-11-21T06:20:15;98005.50;;;7.04;100.00
141;BME280;65;48.778;9.160;2023-11-21T06:23:06;98006.25;;;7.06;100.00
141;BME280;65;48.778;9.160;2023-11-21T06:25:52;98008.88;;;7.06;100.00
141;BME280;65;48.778;9.160;2023-11-21T06:28:38;98011.19;;;7.12;100.00
141;BME280;65;48.778;9.160;2023-11-21T06:31:24;98016.22;;;7.17;100.00
141;BME280;65;48.778;9.160;2023-11-21T06:34:09;98012.31;;;7.24;100.00
141;BME280;65;48.778;9.160;2023-11-21T06:36:55;98018.09;;;7.30;100.00
141;BME280;65;48.778;9.160;2023-11-21T06:39:42;98014.53;;;7.32;100.00
141;BME280;65;48.778;9.160;2023-11-21T06:42:27;98020.56;;;7.34;100.00
141;BME280;65;48.778;9.160;2023-11-21T06:45:15;98029.47;;;7.31;100.00
141;BME280;65;48.778;9.160;2023-11-21T06:48:01;98027.69;;;7.32;100.00
141;BME280;65;48.778;9.160;2023-11-21T06:50:47;98038.81;;;7.37;100.00
141;BME280;65;48.778;9.160;2023-11-21T06:53:32;98038.03;;;7.35;100.00
141;BME280;65;48.778;9.160;2023-11-21T06:56:18;98031.09;;;7.34;100.00
141;BME280;65;48.778;9.160;2023-11-21T06:59:04;98037.13;;;7.36;100.00
141;BME280;65;48.778;9.160;2023-11-21T07:01:51;98044.84;;;7.39;100.00
141;BME280;65;48.778;9.160;2023-11-21T07:04:36;98046.38;;;7.43;100.00
141;BME280;65;48.778;9.160;2023-11-21T07:07:22;98047.13;;;7.45;100.00
141;BME280;65;48.778;9.160;2023-11-21T07:10:08;98043.75;;;7.43;100.00
141;BME280;65;48.778;9.160;2023-11-21T07:12:54;98053.09;;;7.48;100.00
141;BME280;65;48.778;9.160;2023-11-21T07:15:40;98049.44;;;7.51;100.00
141;BME280;65;48.778;9.160;2023-11-21T07:18:26;98057.34;;;7.51;100.00
141;BME280;65;48.778;9.160;2023-11-21T07:21:12;98059.19;;;7.49;100.00
141;BME280;65;48.778;9.160;2023-11-21T07:23:57;98065.00;;;7.55;100.00
141;BME280;65;48.778;9.160;2023-11-21T07:26:43;98071.88;;;7.58;100.00
141;BME280;65;48.778;9.160;2023-11-21T07:29:29;98070.03;;;7.60;100.00
141;BME280;65;48.778;9.160;2023-11-21T07:32:18;98075.88;;;7.65;100.00
141;BME280;65;48.778;9.160;2023-11-21T07:35:04;98077.25;;;7.72;100.00
141;BME280;65;48.778;9.160;2023-11-21T07:37:50;98079.88;;;7.72;100.00
141;BME280;65;48.778;9.160;2023-11-21T07:40:36;98076.94;;;7.78;100.00
141;BME280;65;48.778;9.160;2023-11-21T07:43:22;98077.84;;;7.77;100.00
141;BME280;65;48.778;9.160;2023-11-21T07:46:08;98084.47;;;7.84;100.00
141;BME280;65;48.778;9.160;2023-11-21T07:48:56;98079.66;;;7.92;100.00
141;BME280;65;48.778;9.160;2023-11-21T07:51:43;98085.34;;;8.01;100.00
141;BME280;65;48.778;9.160;2023-11-21T07:54:29;98092.81;;;8.08;100.00
141;BME280;65;48.778;9.160;2023-11-21T07:57:15;98084.06;;;8.08;100.00
141;BME280;65;48.778;9.160;2023-11-21T08:00:01;98091.84;;;8.11;100.00
141;BME280;65;48.778;9.160;2023-11-21T08:02:48;98087.16;;;8.16;100.00
141;BME280;65;48.778;9.160;2023-11-21T08:05:34;98095.41;;;8.25;100.00
141;BME280;65;48.778;9.160;2023-11-21T08:08:20;98100.41;;;8.30;100.00
141;BME280;65;48.778;9.160;2023-11-21T08:11:06;98101.97;;;8.34;100.00
141;BME280;65;48.778;9.160;2023-11-21T08:13:53;98099.00;;;8.40;100.00
141;BME280;65;48.778;9.160;2023-11-21T08:16:40;98100.69;;;8.41;100.00
141;BME280;65;48.778;9.160;2023-11-21T08:19:26;98110.47;;;8.39;100.00
141;BME280;65;48.778;9.160;2023-11-21T08:22:11;98112.34;;;8.37;100.00
141;BME280;65;48.778;9.160;2023-11-21T08:24:58;98105.38;;;8.36;100.00
141;BME280;65;48.778;9.160;2023-11-21T08:27:43;98106.72;;;8.43;100.00
141;BME280;65;48.778;9.160;2023-11-21T08:30:29;98115.13;;;8.50;100.00
141;BME280;65;48.778;9.160;2023-11-21T08:33:15;98111.31;;;8.55;100.00
141;BME280;65;48.778;9.160;2023-11-21T08:36:07;98113.69;;;8.60;100.00
141;BME280;65;48.778;9.160;2023-11-21T08:38:53;98113.75;;;8.59;100.00
141;BME280;65;48.778;9.160;2023-11-21T08:41:38;98112.66;;;8.78;100.00
141;BME280;65;48.778;9.160;2023-11-21T08:44:24;98114.69;;;8.89;100.00
141;BME280;65;48.778;9.160;2023-11-21T08:47:10;98118.03;;;9.07;100.00
141;BME280;65;48.778;9.160;2023-11-21T08:49:58;98108.91;;;9.12;100.00
141;BME280;65;48.778;9.160;2023-11-21T08:52:45;98116.91;;;9.41;100.00
141;BME280;65;48.778;9.160;2023-11-21T08:55:31;98126.34;;;9.59;100.00
141;BME280;65;48.778;9.160;2023-11-21T08:58:17;98130.41;;;9.79;100.00
141;BME280;65;48.778;9.160;2023-11-21T09:01:03;98136.75;;;9.91;100.00
141;BME280;65;48.778;9.160;2023-11-21T09:03:49;98134.22;;;10.03;100.00
141;BME280;65;48.778;9.160;2023-11-21T09:06:35;98136.00;;;10.17;100.00
141;BME280;65;48.778;9.160;2023-11-21T09:09:21;98132.16;;;10.23;100.00
141;BME280;65;48.778;9.160;2023-11-21T09:12:07;98134.69;;;10.24;100.00
141;BME280;65;48.778;9.160;2023-11-21T09:14:53;98138.81;;;10.14;100.00
141;BME280;65;48.778;9.160;2023-11-21T09:17:39;98140.34;;;9.90;100.00
141;BME280;65;48.778;9.160;2023-11-21T09:20:25;98146.56;;;10.03;100.00
141;BME280;65;48.778;9.160;2023-11-21T09:23:43;98148.34;;;10.17;100.00
141;BME280;65;48.778;9.160;2023-11-21T09:26:30;98150.25;;;10.14;100.00
141;BME280;65;48.778;9.160;2023-11-21T09:29:15;98147.13;;;10.08;100.00
141;BME280;65;48.778;9.160;2023-11-21T09:32:01;98151.19;;;9.99;100.00
141;BME280;65;48.778;9.160;2023-11-21T09:34:49;98147.75;;;9.69;100.00
141;BME280;65;48.778;9.160;2023-11-21T09:37:35;98157.16;;;9.59;100.00
141;BME280;65;48.778;9.160;2023-11-21T09:40:23;98156.69;;;9.52;100.00
141;BME280;65;48.778;9.160;2023-11-21T09:43:16;98158.84;;;9.45;100.00
141;BME280;65;48.778;9.160;2023-11-21T09:46:06;98157.44;;;9.54;100.00
141;BME280;65;48.778;9.160;2023-11-21T09:48:57;98165.16;;;9.57;100.00
141;BME280;65;48.778;9.160;2023-11-21T09:51:46;98163.78;;;9.66;100.00
141;BME280;65;48.778;9.160;2023-11-21T09:54:33;98164.91;;;9.76;100.00
141;BME280;65;48.778;9.160;2023-11-21T09:57:20;98159.53;;;9.63;100.00
141;BME280;65;48.778;9.160;2023-11-21T10:00:10;98164.22;;;9.58;100.00
141;BME280;65;48.778;9.160;2023-11-21T10:02:58;98166.31;;;9.67;100.00
141;BME280;65;48.778;9.160;2023-11-21T10:05:45;98168.22;;;9.79;100.00
141;BME280;65;48.778;9.160;2023-11-21T10:08:34;98181.28;;;9.97;100.00
141;BME280;65;48.778;9.160;2023-11-21T10:11:24;98174.00;;;10.00;100.00
141;BME280;65;48.778;9.160;2023-11-21T10:14:11;98169.28;;;9.91;100.00
141;BME280;65;48.778;9.160;2023-11-21T10:16:58;98172.75;;;9.77;100.00
141;BME280;65;48.778;9.160;2023-11-21T10:19:46;98178.00;;;9.77;100.00
141;BME280;65;48.778;9.160;2023-11-21T10:22:32;98180.81;;;9.60;100.00
141;BME280;65;48.778;9.160;2023-11-21T10:25:19;98177.22;;;9.47;100.00
141;BME280;65;48.778;9.160;2023-11-21T10:28:12;98177.97;;;9.49;100.00
141;BME280;65;48.778;9.160;2023-11-21T10:30:57;98182.28;;;9.36;100.00
141;BME280;65;48.778;9.160;2023-11-21T10:33:43;98185.09;;;9.33;100.00
141;BME280;65;48.778;9.160;2023-11-21T10:36:29;98192.56;;;9.25;100.00
141;BME280;65;48.778;9.160;2023-11-21T10:39:19;98189.69;;;9.29;100.00
141;BME280;65;48.778;9.160;2023-11-21T10:45:39;98185.53;;;9.25;100.00
141;BME280;65;48.778;9.160;2023-11-21T10:48:25;98193.50;;;9.24;100.00
141;BME280;65;48.778;9.160;2023-11-21T10:51:10;98192.31;;;9.29;100.00
141;BME280;65;48.778;9.160;2023-11-21T10:53:56;98192.56;;;9.40;100.00
141;BME280;65;48.778;9.160;2023-11-21T10:56:42;98192.22;;;9.61;100.00
141;BME280;65;48.778;9.160;2023-11-21T10:59:30;98188.63;;;9.92;100.00
141;BME280;65;48.778;9.160;2023-11-21T11:02:26;98195.81;;;10.32;100.00
141;BME280;65;48.778;9.160;2023-11-21T11:05:15;98193.00;;;10.21;100.00
141;BME280;65;48.778;9.160;2023-11-21T11:08:08;98197.13;;;10.39;100.00
141;BME280;65;48.778;9.160;2023-11-21T11:10:57;98189.97;;;10.56;100.00
141;BME280;65;48.778;9.160;2023-11-21T11:13:44;98187.13;;;10.59;100.00
141;BME280;65;48.778;9.160;2023-11-21T11:16:31;98190.66;;;10.45;100.00
141;BME280;65;48.778;9.160;2023-11-21T11:19:17;98188.66;;;10.34;100.00
141;BME280;65;48.778;9.160;2023-11-21T11:29:01;98195.53;;;10.23;100.00
141;BME280;65;48.778;9.160;2023-11-21T11:34:47;98194.47;;;9.97;100.00
141;BME280;65;48.778;9.160;2023-11-21T11:37:35;98193.06;;;9.91;100.00
141;BME280;65;48.778;9.160;2023-11-21T11:40:22;98195.97;;;10.15;100.00
141;BME280;65;48.778;9.160;2023-11-21T11:43:09;98194.88;;;10.62;100.00
141;BME280;65;48.778;9.160;2023-11-21T11:45:59;98193.38;;;10.85;100.00
141;BME280;65;48.778;9.160;2023-11-21T11:48:45;98197.97;;;10.95;100.00
141;BME280;65;48.778;9.160;2023-11-21T11:51:30;98208.09;;;11.03;100.00
141;BME280;65;48.778;9.160;2023-11-21T11:54:34;98199.25;;;11.17;100.00
141;BME280;65;48.778;9.160;2023-11-21T11:57:24;98201.69;;;11.20;100.00
141;BME280;65;48.778;9.160;2023-11-21T12:00:14;98195.06;;;11.00;100.00
141;BME280;65;48.778;9.160;2023-11-21T12:03:20;98191.72;;;11.11;100.00
141;BME280;65;48.778;9.160;2023-11-21T12:06:06;98206.78;;;10.96;100.00
141;BME280;65;48.778;9.160;2023-11-21T12:08:53;98199.31;;;10.88;100.00
141;BME280;65;48.778;9.160;2023-11-21T12:11:41;98199.00;;;10.66;100.00
141;BME280;65;48.778;9.160;2023-11-21T12:14:30;98200.31;;;10.73;100.00
141;BME280;65;48.778;9.160;2023-11-21T12:17:16;98209.72;;;10.91;100.00
141;BME280;65;48.778;9.160;2023-11-21T12:20:03;98201.31;;;10.99;100.00
141;BME280;65;48.778;9.160;2023-11-21T12:22:51;98203.13;;;10.84;100.00
141;BME280;65;48.778;9.160;2023-11-21T12:25:39;98205.38;;;10.90;100.00
141;BME280;65;48.778;9.160;2023-11-21T12:28:26;98205.22;;;10.79;100.00
141;BME280;65;48.778;9.160;2023-11-21T12:31:12;98208.22;;;10.87;100.00
141;BME280;65;48.778;9.160;2023-11-21T12:33:58;98207.06;;;10.91;100.00
141;BME280;65;48.778;9.160;2023-11-21T12:36:44;98211.38;;;11.06;100.00
141;BME280;65;48.778;9.160;2023-11-21T12:39:31;98214.75;;;10.82;100.00
141;BME280;65;48.778;9.160;2023-11-21T12:42:17;98211.00;;;10.57;100.00
141;BME280;65;48.778;9.160;2023-11-21T12:48:04;98228.13;;;10.07;100.00
141;BME280;65;48.778;9.160;2023-11-21T12:50:53;98228.22;;;9.92;100.00
141;BME280;65;48.778;9.160;2023-11-21T12:53:42;98217.28;;;9.83;100.00
141;BME280;65;48.778;9.160;2023-11-21T12:56:28;98222.94;;;9.62;100.00
141;BME280;65;48.778;9.160;2023-11-21T12:59:14;98224.09;;;9.72;100.00
141;BME280;65;48.778;9.160;2023-11-21T13:02:01;98223.50;;;9.97;100.00
141;BME280;65;48.778;9.160;2023-11-21T13:04:54;98220.53;;;10.31;100.00
141;BME280;65;48.778;9.160;2023-11-21T13:07:44;98219.63;;;10.47;100.00
141;BME280;65;48.778;9.160;2023-11-21T13:10:33;98218.44;;;10.79;100.00
141;BME280;65;48.778;9.160;2023-11-21T13:13:22;98221.69;;;10.97;100.00
141;BME280;65;48.778;9.160;2023-11-21T13:16:11;98235.09;;;10.94;100.00
141;BME280;65;48.778;9.160;2023-11-21T13:22:38;98239.81;;;10.48;100.00
141;BME280;65;48.778;9.160;2023-11-21T13:25:25;98242.19;;;10.08;100.00
141;BME280;65;48.778;9.160;2023-11-21T13:28:13;98253.13;;;10.02;100.00
141;BME280;65;48.778;9.160;2023-11-21T13:31:02;98257.63;;;9.86;100.00
141;BME280;65;48.778;9.160;2023-11-21T13:33:56;98261.41;;;9.66;100.00
141;BME280;65;48.778;9.160;2023-11-21T13:36:44;98262.47;;;9.47;100.00
141;BME280;65;48.778;9.160;2023-11-21T13:39:31;98260.47;;;9.37;100.00
141;BME280;65;48.778;9.160;2023-11-21T13:42:17;98270.25;;;9.03;100.00
141;BME280;65;48.778;9.160;2023-11-21T13:45:04;98268.47;;;8.88;100.00
141;BME280;65;48.778;9.160;2023-11-21T13:47:52;98273.66;;;8.74;100.00
141;BME280;65;48.778;9.160;2023-11-21T13:50:40;98267.16;;;8.64;100.00
141;BME280;65;48.778;9.160;2023-11-21T13:53:34;98268.75;;;8.50;100.00
141;BME280;65;48.778;9.160;2023-11-21T13:56:23;98272.47;;;8.46;100.00
141;BME280;65;48.778;9.160;2023-11-21T13:59:09;98282.84;;;8.49;100.00
141;BME280;65;48.778;9.160;2023-11-21T14:02:06;98284.53;;;8.50;100.00
141;BME280;65;48.778;9.160;2023-11-21T14:05:03;98287.78;;;8.55;100.00
141;BME280;65;48.778;9.160;2023-11-21T14:07:58;98288.97;;;8.50;100.00
141;BME280;65;48.778;9.160;2023-11-21T14:10:51;98293.13;;;8.54;100.00
141;BME280;65;48.778;9.160;2023-11-21T14:13:42;98297.72;;;8.50;100.00
141;BME280;65;48.778;9.160;2023-11-21T14:16:32;98299.56;;;8.48;100.00
141;BME280;65;48.778;9.160;2023-11-21T14:19:18;98300.59;;;8.46;100.00
141;BME280;65;48.778;9.160;2023-11-21T14:22:04;98306.19;;;8.40;100.00
141;BME280;65;48.778;9.160;2023-11-21T14:24:50;98306.28;;;8.38;100.00
141;BME280;65;48.778;9.160;2023-11-21T14:27:37;98312.31;;;8.40;100.00
141;BME280;65;48.778;9.160;2023-11-21T14:30:23;98320.53;;;8.34;100.00
141;BME280;65;48.778;9.160;2023-11-21T14:33:09;98305.66;;;8.33;100.00
141;BME280;65;48.778;9.160;2023-11-21T14:35:57;98317.34;;;8.28;100.00
141;BME280;65;48.778;9.160;2023-11-21T14:38:43;98317.72;;;8.20;100.00
141;BME280;65;48.778;9.160;2023-11-21T14:41:29;98320.53;;;8.17;100.00
141;BME280;65;48.778;9.160;2023-11-21T14:44:14;98320.38;;;8.20;100.00
141;BME280;65;48.778;9.160;2023-11-21T14:47:01;98326.25;;;8.25;100.00
141;BME280;65;48.778;9.160;2023-11-21T14:49:51;98329.88;;;8.40;100.00
141;BME280;65;48.778;9.160;2023-11-21T14:52:38;98331.50;;;8.42;100.00
141;BME280;65;48.778;9.160;2023-11-21T14:55:39;98334.06;;;8.44;100.00
141;BME280;65;48.778;9.160;2023-11-21T14:58:37;98341.13;;;8.43;100.00
141;BME280;65;48.778;9.160;2023-11-21T15:01:24;98341.97;;;8.44;100.00
141;BME280;65;48.778;9.160;2023-11-21T15:04:28;98342.81;;;8.44;100.00
141;BME280;65;48.778;9.160;2023-11-21T15:07:24;98349.94;;;8.42;100.00
141;BME280;65;48.778;9.160;2023-11-21T15:10:12;98349.25;;;8.39;100.00
141;BME280;65;48.778;9.160;2023-11-21T15:13:15;98354.69;;;8.36;100.00
141;BME280;65;48.778;9.160;2023-11-21T15:16:01;98355.59;;;8.35;100.00
141;BME280;65;48.778;9.160;2023-11-21T15:18:53;98367.13;;;8.32;100.00
141;BME280;65;48.778;9.160;2023-11-21T15:21:39;98369.84;;;8.31;100.00
141;BME280;65;48.778;9.160;2023-11-21T15:24:25;98378.66;;;8.30;100.00
141;BME280;65;48.778;9.160;2023-11-21T15:27:11;98385.56;;;8.32;100.00
141;BME280;65;48.778;9.160;2023-11-21T15:29:57;98389.13;;;8.31;100.00
141;BME280;65;48.778;9.160;2023-11-21T15:32:46;98390.91;;;8.31;100.00
141;BME280;65;48.778;9.160;2023-11-21T15:35:32;98387.50;;;8.29;100.00
141;BME280;65;48.778;9.160;2023-11-21T15:38:18;98387.56;;;8.27;100.00
141;BME280;65;48.778;9.160;2023-11-21T15:41:04;98395.47;;;8.27;100.00
141;BME280;65;48.778;9.160;2023-11-21T15:43:52;98398.56;;;8.18;100.00
141;BME280;65;48.778;9.160;2023-11-21T15:46:38;98399.72;;;8.12;100.00
141;BME280;65;48.778;9.160;2023-11-21T15:49:26;98408.63;;;8.10;100.00
141;BME280;65;48.778;9.160;2023-11-21T15:52:14;98402.56;;;8.08;100.00
141;BME280;65;48.778;9.160;2023-11-21T15:54:59;98400.00;;;8.06;100.00
141;BME280;65;48.778;9.160;2023-11-21T15:57:46;98407.34;;;8.00;100.00
141;BME280;65;48.778;9.160;2023-11-21T16:00:32;98412.75;;;7.97;100.00
141;BME280;65;48.778;9.160;2023-11-21T16:03:17;98419.72;;;7.98;100.00
141;BME280;65;48.778;9.160;2023-11-21T16:06:03;98415.56;;;7.93;100.00
141;BME280;65;48.778;9.160;2023-11-21T16:08:50;98423.75;;;7.87;100.00
141;BME280;65;48.778;9.160;2023-11-21T16:11:36;98427.84;;;7.93;100.00